sensor_id;sensor_type;location;lat;lon;timestamp;P1;durP1;ratioP1;P2;durP2;ratioP2
23990;SDS011;12205;50.600;4.608;2022-07-09T00:00:41;6.55;;;2.10;;
23990;SDS011;12205;50.600;4.608;2022-07-09T00:03:09;5.90;;;1.83;;
23990;SDS011;12205;50.600;4.608;2022-07-09T00:05:37;7.60;;;1.92;;
23990;SDS011;12205;50.600;4.608;2022-07-09T00:08:04;6.72;;;2.20;;
23990;SDS011;12205;50.600;4.608;2022-07-09T00:10:31;7.70;;;2.00;;
23990;SDS011;12205;50.600;4.608;2022-07-09T00:13:01;6.65;;;2.15;;
23990;SDS011;12205;50.600;4.608;2022-07-09T00:15:28;7.97;;;2.30;;
23990;SDS011;12205;50.600;4.608;2022-07-09T00:17:55;7.97;;;1.85;;
23990;SDS011;12205;50.600;4.608;2022-07-09T00:20:23;5.20;;;2.25;;
23990;SDS011;12205;50.600;4.608;2022-07-09T00:22:50;11.50;;;2.47;;
23990;SDS011;12205;50.600;4.608;2022-07-09T00:25:17;7.25;;;2.08;;
23990;SDS011;12205;50.600;4.608;2022-07-09T00:27:44;13.05;;;3.13;;
23990;SDS011;12205;50.600;4.608;2022-07-09T00:30:12;12.70;;;2.92;;
23990;SDS011;12205;50.600;4.608;2022-07-09T00:32:40;9.30;;;3.05;;
23990;SDS011;12205;50.600;4.608;2022-07-09T00:35:07;13.75;;;3.08;;
23990;SDS011;12205;50.600;4.608;2022-07-09T00:37:34;12.48;;;3.33;;
23990;SDS011;12205;50.600;4.608;2022-07-09T00:40:02;14.73;;;2.70;;
23990;SDS011;12205;50.600;4.608;2022-07-09T00:42:30;9.73;;;3.30;;
23990;SDS011;12205;50.600;4.608;2022-07-09T00:44:57;7.25;;;1.80;;
23990;SDS011;12205;50.600;4.608;2022-07-09T00:47:25;8.93;;;1.50;;
23990;SDS011;12205;50.600;4.608;2022-07-09T00:49:52;7.18;;;1.88;;
23990;SDS011;12205;50.600;4.608;2022-07-09T00:52:20;7.82;;;1.75;;
23990;SDS011;12205;50.600;4.608;2022-07-09T00:54:48;8.05;;;1.55;;
23990;SDS011;12205;50.600;4.608;2022-07-09T00:57:16;6.15;;;1.50;;
23990;SDS011;12205;50.600;4.608;2022-07-09T00:59:45;7.03;;;2.15;;
23990;SDS011;12205;50.600;4.608;2022-07-09T01:02:12;6.05;;;1.70;;
23990;SDS011;12205;50.600;4.608;2022-07-09T01:04:41;5.35;;;2.30;;
23990;SDS011;12205;50.600;4.608;2022-07-09T01:07:08;7.78;;;1.75;;
23990;SDS011;12205;50.600;4.608;2022-07-09T01:09:35;6.32;;;1.75;;
23990;SDS011;12205;50.600;4.608;2022-07-09T01:12:02;8.70;;;2.08;;
23990;SDS011;12205;50.600;4.608;2022-07-09T01:14:30;12.15;;;2.13;;
23990;SDS011;12205;50.600;4.608;2022-07-09T01:16:58;6.47;;;1.85;;
23990;SDS011;12205;50.600;4.608;2022-07-09T01:19:27;6.95;;;1.83;;
23990;SDS011;12205;50.600;4.608;2022-07-09T01:21:56;14.02;;;3.05;;
23990;SDS011;12205;50.600;4.608;2022-07-09T01:24:25;13.85;;;3.28;;
23990;SDS011;12205;50.600;4.608;2022-07-09T01:26:53;8.18;;;2.55;;
23990;SDS011;12205;50.600;4.608;2022-07-09T01:29:21;6.32;;;1.77;;
23990;SDS011;12205;50.600;4.608;2022-07-09T01:31:49;2.88;;;1.27;;
23990;SDS011;12205;50.600;4.608;2022-07-09T01:34:16;12.40;;;2.40;;
23990;SDS011;12205;50.600;4.608;2022-07-09T01:36:43;7.03;;;1.58;;
23990;SDS011;12205;50.600;4.608;2022-07-09T01:39:12;9.38;;;3.00;;
23990;SDS011;12205;50.600;4.608;2022-07-09T01:41:39;10.98;;;2.20;;
23990;SDS011;12205;50.600;4.608;2022-07-09T01:44:06;4.13;;;1.55;;
23990;SDS011;12205;50.600;4.608;2022-07-09T01:46:33;10.30;;;1.88;;
23990;SDS011;12205;50.600;4.608;2022-07-09T01:49:01;8.85;;;1.83;;
23990;SDS011;12205;50.600;4.608;2022-07-09T01:51:28;7.00;;;1.40;;
23990;SDS011;12205;50.600;4.608;2022-07-09T01:53:55;6.13;;;2.00;;
23990;SDS011;12205;50.600;4.608;2022-07-09T01:56:24;7.05;;;1.90;;
23990;SDS011;12205;50.600;4.608;2022-07-09T01:58:51;6.97;;;1.90;;
23990;SDS011;12205;50.600;4.608;2022-07-09T02:01:18;6.05;;;1.40;;
23990;SDS011;12205;50.600;4.608;2022-07-09T02:03:45;4.85;;;1.20;;
23990;SDS011;12205;50.600;4.608;2022-07-09T02:06:13;7.78;;;1.85;;
23990;SDS011;12205;50.600;4.608;2022-07-09T02:08:40;5.82;;;1.52;;
23990;SDS011;12205;50.600;4.608;2022-07-09T02:11:07;3.92;;;1.40;;
23990;SDS011;12205;50.600;4.608;2022-07-09T02:13:36;7.43;;;1.85;;
23990;SDS011;12205;50.600;4.608;2022-07-09T02:16:03;9.95;;;2.72;;
23990;SDS011;12205;50.600;4.608;2022-07-09T02:18:32;6.13;;;1.75;;
23990;SDS011;12205;50.600;4.608;2022-07-09T02:20:59;5.78;;;1.65;;
23990;SDS011;12205;50.600;4.608;2022-07-09T02:23:27;5.72;;;1.60;;
23990;SDS011;12205;50.600;4.608;2022-07-09T02:25:54;4.97;;;1.60;;
23990;SDS011;12205;50.600;4.608;2022-07-09T02:28:21;6.78;;;1.80;;
23990;SDS011;12205;50.600;4.608;2022-07-09T02:30:49;10.25;;;1.95;;
23990;SDS011;12205;50.600;4.608;2022-07-09T02:33:16;5.75;;;2.10;;
23990;SDS011;12205;50.600;4.608;2022-07-09T02:35:44;6.25;;;2.15;;
23990;SDS011;12205;50.600;4.608;2022-07-09T02:38:11;11.68;;;3.50;;
23990;SDS011;12205;50.600;4.608;2022-07-09T02:40:38;5.68;;;1.38;;
23990;SDS011;12205;50.600;4.608;2022-07-09T02:43:05;11.52;;;1.95;;
23990;SDS011;12205;50.600;4.608;2022-07-09T02:45:32;4.45;;;1.60;;
23990;SDS011;12205;50.600;4.608;2022-07-09T02:48:00;6.40;;;1.85;;
23990;SDS011;12205;50.600;4.608;2022-07-09T02:50:27;7.40;;;1.90;;
23990;SDS011;12205;50.600;4.608;2022-07-09T02:52:54;8.88;;;1.65;;
23990;SDS011;12205;50.600;4.608;2022-07-09T02:55:22;7.47;;;2.25;;
23990;SDS011;12205;50.600;4.608;2022-07-09T02:57:49;14.70;;;2.78;;
23990;SDS011;12205;50.600;4.608;2022-07-09T03:00:16;16.30;;;3.75;;
23990;SDS011;12205;50.600;4.608;2022-07-09T03:02:43;15.07;;;2.50;;
23990;SDS011;12205;50.600;4.608;2022-07-09T03:05:11;8.80;;;2.30;;
23990;SDS011;12205;50.600;4.608;2022-07-09T03:07:38;9.80;;;2.13;;
23990;SDS011;12205;50.600;4.608;2022-07-09T03:10:05;18.77;;;3.00;;
23990;SDS011;12205;50.600;4.608;2022-07-09T03:12:33;5.07;;;1.60;;
23990;SDS011;12205;50.600;4.608;2022-07-09T03:15:00;12.13;;;2.60;;
23990;SDS011;12205;50.600;4.608;2022-07-09T03:17:27;7.78;;;1.90;;
23990;SDS011;12205;50.600;4.608;2022-07-09T03:19:54;11.98;;;1.75;;
23990;SDS011;12205;50.600;4.608;2022-07-09T03:22:23;18.13;;;3.42;;
23990;SDS011;12205;50.600;4.608;2022-07-09T03:24:50;5.75;;;1.70;;
23990;SDS011;12205;50.600;4.608;2022-07-09T03:27:17;17.02;;;2.60;;
23990;SDS011;12205;50.600;4.608;2022-07-09T03:29:44;9.95;;;2.33;;
23990;SDS011;12205;50.600;4.608;2022-07-09T03:32:11;14.00;;;2.55;;
23990;SDS011;12205;50.600;4.608;2022-07-09T03:34:38;6.13;;;1.85;;
23990;SDS011;12205;50.600;4.608;2022-07-09T03:37:05;5.82;;;1.67;;
23990;SDS011;12205;50.600;4.608;2022-07-09T03:39:34;14.63;;;2.50;;
23990;SDS011;12205;50.600;4.608;2022-07-09T03:42:02;7.03;;;2.10;;
23990;SDS011;12205;50.600;4.608;2022-07-09T03:44:31;16.15;;;3.17;;
23990;SDS011;12205;50.600;4.608;2022-07-09T03:46:58;13.23;;;2.05;;
23990;SDS011;12205;50.600;4.608;2022-07-09T03:49:26;7.57;;;2.20;;
23990;SDS011;12205;50.600;4.608;2022-07-09T03:51:53;8.52;;;1.80;;
23990;SDS011;12205;50.600;4.608;2022-07-09T03:54:20;8.65;;;1.88;;
23990;SDS011;12205;50.600;4.608;2022-07-09T03:56:48;5.53;;;1.83;;
23990;SDS011;12205;50.600;4.608;2022-07-09T03:59:16;9.23;;;2.38;;
23990;SDS011;12205;50.600;4.608;2022-07-09T04:01:44;9.48;;;2.70;;
23990;SDS011;12205;50.600;4.608;2022-07-09T04:04:11;25.15;;;5.22;;
23990;SDS011;12205;50.600;4.608;2022-07-09T04:06:38;26.00;;;5.82;;
23990;SDS011;12205;50.600;4.608;2022-07-09T04:09:05;39.95;;;8.10;;
23990;SDS011;12205;50.600;4.608;2022-07-09T04:11:32;42.22;;;8.57;;
23990;SDS011;12205;50.600;4.608;2022-07-09T04:14:01;34.60;;;7.75;;
23990;SDS011;12205;50.600;4.608;2022-07-09T04:16:29;38.47;;;7.57;;
23990;SDS011;12205;50.600;4.608;2022-07-09T04:18:56;25.23;;;5.93;;
23990;SDS011;12205;50.600;4.608;2022-07-09T04:21:24;30.65;;;6.05;;
23990;SDS011;12205;50.600;4.608;2022-07-09T04:23:51;39.58;;;9.18;;
23990;SDS011;12205;50.600;4.608;2022-07-09T04:26:19;23.50;;;4.25;;
23990;SDS011;12205;50.600;4.608;2022-07-09T04:28:46;29.85;;;7.10;;
23990;SDS011;12205;50.600;4.608;2022-07-09T04:31:14;28.15;;;5.85;;
23990;SDS011;12205;50.600;4.608;2022-07-09T04:33:44;14.73;;;4.13;;
23990;SDS011;12205;50.600;4.608;2022-07-09T04:36:11;16.05;;;3.40;;
23990;SDS011;12205;50.600;4.608;2022-07-09T04:38:39;12.73;;;3.17;;
23990;SDS011;12205;50.600;4.608;2022-07-09T04:41:06;22.42;;;3.67;;
23990;SDS011;12205;50.600;4.608;2022-07-09T04:43:33;19.45;;;3.10;;
23990;SDS011;12205;50.600;4.608;2022-07-09T04:46:00;9.18;;;2.15;;
23990;SDS011;12205;50.600;4.608;2022-07-09T04:48:28;13.75;;;3.05;;
23990;SDS011;12205;50.600;4.608;2022-07-09T04:50:56;9.82;;;2.45;;
23990;SDS011;12205;50.600;4.608;2022-07-09T04:53:23;9.15;;;2.00;;
23990;SDS011;12205;50.600;4.608;2022-07-09T04:55:50;5.63;;;2.40;;
23990;SDS011;12205;50.600;4.608;2022-07-09T05:00:52;27.83;;;6.13;;
23990;SDS011;12205;50.600;4.608;2022-07-09T05:03:19;6.85;;;1.85;;
23990;SDS011;12205;50.600;4.608;2022-07-09T05:05:47;15.00;;;2.88;;
23990;SDS011;12205;50.600;4.608;2022-07-09T05:08:14;15.00;;;2.70;;
23990;SDS011;12205;50.600;4.608;2022-07-09T05:10:41;6.63;;;1.88;;
23990;SDS011;12205;50.600;4.608;2022-07-09T05:13:09;7.53;;;1.67;;
23990;SDS011;12205;50.600;4.608;2022-07-09T05:15:36;4.45;;;1.80;;
23990;SDS011;12205;50.600;4.608;2022-07-09T05:18:03;8.48;;;1.63;;
23990;SDS011;12205;50.600;4.608;2022-07-09T05:20:30;13.52;;;1.70;;
23990;SDS011;12205;50.600;4.608;2022-07-09T05:22:58;9.95;;;1.90;;
23990;SDS011;12205;50.600;4.608;2022-07-09T05:25:25;8.30;;;1.70;;
23990;SDS011;12205;50.600;4.608;2022-07-09T05:27:53;6.28;;;1.42;;
23990;SDS011;12205;50.600;4.608;2022-07-09T05:30:20;8.00;;;1.60;;
23990;SDS011;12205;50.600;4.608;2022-07-09T05:32:47;7.22;;;1.40;;
23990;SDS011;12205;50.600;4.608;2022-07-09T05:35:14;8.73;;;1.75;;
23990;SDS011;12205;50.600;4.608;2022-07-09T05:37:42;7.13;;;1.58;;
23990;SDS011;12205;50.600;4.608;2022-07-09T05:40:12;6.53;;;1.40;;
23990;SDS011;12205;50.600;4.608;2022-07-09T05:42:39;4.95;;;1.60;;
23990;SDS011;12205;50.600;4.608;2022-07-09T05:45:06;16.15;;;2.58;;
23990;SDS011;12205;50.600;4.608;2022-07-09T05:47:35;4.55;;;1.50;;
23990;SDS011;12205;50.600;4.608;2022-07-09T05:50:02;6.88;;;1.50;;
23990;SDS011;12205;50.600;4.608;2022-07-09T05:52:29;6.93;;;1.40;;
23990;SDS011;12205;50.600;4.608;2022-07-09T05:54:57;6.38;;;1.60;;
23990;SDS011;12205;50.600;4.608;2022-07-09T05:57:25;10.02;;;1.75;;
23990;SDS011;12205;50.600;4.608;2022-07-09T05:59:52;5.82;;;1.33;;
23990;SDS011;12205;50.600;4.608;2022-07-09T06:02:19;9.35;;;1.83;;
23990;SDS011;12205;50.600;4.608;2022-07-09T06:04:46;11.65;;;2.10;;
23990;SDS011;12205;50.600;4.608;2022-07-09T06:07:14;7.55;;;2.58;;
23990;SDS011;12205;50.600;4.608;2022-07-09T06:09:41;7.13;;;1.70;;
23990;SDS011;12205;50.600;4.608;2022-07-09T06:12:08;8.10;;;1.70;;
23990;SDS011;12205;50.600;4.608;2022-07-09T06:14:37;8.02;;;1.80;;
23990;SDS011;12205;50.600;4.608;2022-07-09T06:17:04;10.48;;;2.00;;
23990;SDS011;12205;50.600;4.608;2022-07-09T06:19:32;4.93;;;1.60;;
23990;SDS011;12205;50.600;4.608;2022-07-09T06:22:00;11.23;;;2.00;;
23990;SDS011;12205;50.600;4.608;2022-07-09T06:24:27;5.00;;;1.70;;
23990;SDS011;12205;50.600;4.608;2022-07-09T06:26:54;14.43;;;2.60;;
23990;SDS011;12205;50.600;4.608;2022-07-09T06:29:22;12.07;;;2.83;;
23990;SDS011;12205;50.600;4.608;2022-07-09T06:31:50;10.45;;;2.17;;
23990;SDS011;12205;50.600;4.608;2022-07-09T06:34:17;8.88;;;2.05;;
23990;SDS011;12205;50.600;4.608;2022-07-09T06:36:45;5.50;;;1.55;;
23990;SDS011;12205;50.600;4.608;2022-07-09T06:39:12;7.32;;;1.95;;
23990;SDS011;12205;50.600;4.608;2022-07-09T06:42:02;6.30;;;1.70;;
23990;SDS011;12205;50.600;4.608;2022-07-09T06:44:31;7.68;;;1.60;;
23990;SDS011;12205;50.600;4.608;2022-07-09T06:47:00;8.40;;;2.05;;
23990;SDS011;12205;50.600;4.608;2022-07-09T06:49:28;4.88;;;1.75;;
23990;SDS011;12205;50.600;4.608;2022-07-09T06:51:55;8.02;;;2.22;;
23990;SDS011;12205;50.600;4.608;2022-07-09T06:54:22;5.18;;;1.90;;
23990;SDS011;12205;50.600;4.608;2022-07-09T06:56:50;10.57;;;2.85;;
23990;SDS011;12205;50.600;4.608;2022-07-09T06:59:17;9.55;;;2.80;;
23990;SDS011;12205;50.600;4.608;2022-07-09T07:01:47;7.82;;;2.55;;
23990;SDS011;12205;50.600;4.608;2022-07-09T07:04:16;8.45;;;2.80;;
23990;SDS011;12205;50.600;4.608;2022-07-09T07:06:45;12.70;;;3.20;;
23990;SDS011;12205;50.600;4.608;2022-07-09T07:09:13;10.38;;;2.08;;
23990;SDS011;12205;50.600;4.608;2022-07-09T07:11:43;12.68;;;2.25;;
23990;SDS011;12205;50.600;4.608;2022-07-09T07:14:11;7.72;;;1.90;;
23990;SDS011;12205;50.600;4.608;2022-07-09T07:16:38;7.57;;;2.20;;
23990;SDS011;12205;50.600;4.608;2022-07-09T07:19:05;6.38;;;2.00;;
23990;SDS011;12205;50.600;4.608;2022-07-09T07:21:33;7.03;;;1.55;;
23990;SDS011;12205;50.600;4.608;2022-07-09T07:24:00;7.75;;;2.15;;
23990;SDS011;12205;50.600;4.608;2022-07-09T07:26:27;5.28;;;1.95;;
23990;SDS011;12205;50.600;4.608;2022-07-09T07:28:54;10.10;;;1.80;;
23990;SDS011;12205;50.600;4.608;2022-07-09T07:31:23;9.55;;;1.83;;
23990;SDS011;12205;50.600;4.608;2022-07-09T07:33:50;6.82;;;1.65;;
23990;SDS011;12205;50.600;4.608;2022-07-09T07:36:17;6.78;;;1.20;;
23990;SDS011;12205;50.600;4.608;2022-07-09T07:38:46;5.25;;;1.52;;
23990;SDS011;12205;50.600;4.608;2022-07-09T07:41:15;9.05;;;1.52;;
23990;SDS011;12205;50.600;4.608;2022-07-09T07:43:44;5.25;;;1.35;;
23990;SDS011;12205;50.600;4.608;2022-07-09T07:46:11;6.47;;;2.13;;
23990;SDS011;12205;50.600;4.608;2022-07-09T07:48:39;4.65;;;1.13;;
23990;SDS011;12205;50.600;4.608;2022-07-09T07:51:07;5.72;;;1.30;;
23990;SDS011;12205;50.600;4.608;2022-07-09T07:53:35;6.05;;;1.52;;
23990;SDS011;12205;50.600;4.608;2022-07-09T07:56:04;5.85;;;1.48;;
23990;SDS011;12205;50.600;4.608;2022-07-09T07:58:33;3.72;;;1.00;;
23990;SDS011;12205;50.600;4.608;2022-07-09T08:01:01;4.20;;;1.10;;
23990;SDS011;12205;50.600;4.608;2022-07-09T08:03:29;4.35;;;1.10;;
23990;SDS011;12205;50.600;4.608;2022-07-09T08:05:56;8.18;;;1.40;;
23990;SDS011;12205;50.600;4.608;2022-07-09T08:08:23;3.28;;;1.40;;
23990;SDS011;12205;50.600;4.608;2022-07-09T08:10:50;5.20;;;1.00;;
23990;SDS011;12205;50.600;4.608;2022-07-09T08:13:18;4.47;;;1.13;;
23990;SDS011;12205;50.600;4.608;2022-07-09T08:15:46;7.20;;;1.38;;
23990;SDS011;12205;50.600;4.608;2022-07-09T08:18:13;16.20;;;4.20;;
23990;SDS011;12205;50.600;4.608;2022-07-09T08:20:40;4.65;;;1.23;;
23990;SDS011;12205;50.600;4.608;2022-07-09T08:23:08;3.22;;;0.93;;
23990;SDS011;12205;50.600;4.608;2022-07-09T08:25:35;5.40;;;1.30;;
23990;SDS011;12205;50.600;4.608;2022-07-09T08:28:03;4.68;;;1.00;;
23990;SDS011;12205;50.600;4.608;2022-07-09T08:30:32;5.25;;;1.50;;
23990;SDS011;12205;50.600;4.608;2022-07-09T08:32:59;5.25;;;1.25;;
23990;SDS011;12205;50.600;4.608;2022-07-09T08:35:26;4.63;;;1.35;;
23990;SDS011;12205;50.600;4.608;2022-07-09T08:37:53;4.47;;;0.90;;
23990;SDS011;12205;50.600;4.608;2022-07-09T08:40:21;3.42;;;0.82;;
23990;SDS011;12205;50.600;4.608;2022-07-09T08:42:50;4.13;;;0.88;;
23990;SDS011;12205;50.600;4.608;2022-07-09T08:45:19;2.88;;;0.93;;
23990;SDS011;12205;50.600;4.608;2022-07-09T08:47:49;6.43;;;1.00;;
23990;SDS011;12205;50.600;4.608;2022-07-09T08:50:17;6.57;;;1.20;;
23990;SDS011;12205;50.600;4.608;2022-07-09T08:52:46;3.55;;;0.80;;
23990;SDS011;12205;50.600;4.608;2022-07-09T08:55:19;11.38;;;1.60;;
23990;SDS011;12205;50.600;4.608;2022-07-09T08:57:47;5.78;;;1.30;;
23990;SDS011;12205;50.600;4.608;2022-07-09T09:00:15;7.00;;;1.02;;
23990;SDS011;12205;50.600;4.608;2022-07-09T09:02:42;3.10;;;0.95;;
23990;SDS011;12205;50.600;4.608;2022-07-09T09:05:12;2.92;;;0.80;;
23990;SDS011;12205;50.600;4.608;2022-07-09T09:10:15;6.50;;;1.55;;
23990;SDS011;12205;50.600;4.608;2022-07-09T09:12:48;1.83;;;0.70;;
23990;SDS011;12205;50.600;4.608;2022-07-09T09:15:21;3.67;;;1.15;;
23990;SDS011;12205;50.600;4.608;2022-07-09T09:17:48;5.15;;;1.05;;
23990;SDS011;12205;50.600;4.608;2022-07-09T09:20:17;6.35;;;1.05;;
23990;SDS011;12205;50.600;4.608;2022-07-09T09:22:46;6.65;;;1.13;;
23990;SDS011;12205;50.600;4.608;2022-07-09T09:25:15;10.77;;;2.17;;
23990;SDS011;12205;50.600;4.608;2022-07-09T09:27:50;4.70;;;1.20;;
23990;SDS011;12205;50.600;4.608;2022-07-09T09:30:19;3.80;;;1.00;;
23990;SDS011;12205;50.600;4.608;2022-07-09T09:32:56;7.93;;;1.67;;
23990;SDS011;12205;50.600;4.608;2022-07-09T09:35:27;4.03;;;1.25;;
23990;SDS011;12205;50.600;4.608;2022-07-09T09:37:56;3.55;;;1.35;;
23990;SDS011;12205;50.600;4.608;2022-07-09T09:40:23;4.72;;;1.15;;
23990;SDS011;12205;50.600;4.608;2022-07-09T09:42:52;3.92;;;1.00;;
23990;SDS011;12205;50.600;4.608;2022-07-09T09:45:22;2.97;;;0.90;;
23990;SDS011;12205;50.600;4.608;2022-07-09T09:48:02;7.13;;;1.63;;
23990;SDS011;12205;50.600;4.608;2022-07-09T09:50:33;10.93;;;1.65;;
23990;SDS011;12205;50.600;4.608;2022-07-09T09:53:02;4.13;;;1.48;;
23990;SDS011;12205;50.600;4.608;2022-07-09T09:55:40;4.63;;;1.25;;
23990;SDS011;12205;50.600;4.608;2022-07-09T09:58:21;5.32;;;1.80;;
23990;SDS011;12205;50.600;4.608;2022-07-09T10:03:21;6.43;;;1.35;;
23990;SDS011;12205;50.600;4.608;2022-07-09T10:05:51;8.68;;;2.00;;
23990;SDS011;12205;50.600;4.608;2022-07-09T10:08:18;4.47;;;1.20;;
23990;SDS011;12205;50.600;4.608;2022-07-09T10:10:49;3.42;;;1.02;;
23990;SDS011;12205;50.600;4.608;2022-07-09T10:15:47;2.45;;;1.00;;
23990;SDS011;12205;50.600;4.608;2022-07-09T10:18:16;6.97;;;1.25;;
23990;SDS011;12205;50.600;4.608;2022-07-09T10:20:44;5.15;;;0.98;;
23990;SDS011;12205;50.600;4.608;2022-07-09T10:23:21;6.90;;;1.00;;
23990;SDS011;12205;50.600;4.608;2022-07-09T10:25:49;5.55;;;1.67;;
23990;SDS011;12205;50.600;4.608;2022-07-09T10:28:21;7.78;;;1.35;;
23990;SDS011;12205;50.600;4.608;2022-07-09T10:30:50;4.53;;;1.10;;
23990;SDS011;12205;50.600;4.608;2022-07-09T10:33:21;3.88;;;1.00;;
23990;SDS011;12205;50.600;4.608;2022-07-09T10:35:50;9.25;;;1.20;;
23990;SDS011;12205;50.600;4.608;2022-07-09T10:38:21;12.13;;;1.70;;
23990;SDS011;12205;50.600;4.608;2022-07-09T10:40:56;10.13;;;1.60;;
23990;SDS011;12205;50.600;4.608;2022-07-09T10:43:37;5.85;;;1.40;;
23990;SDS011;12205;50.600;4.608;2022-07-09T10:46:08;5.25;;;1.48;;
23990;SDS011;12205;50.600;4.608;2022-07-09T10:48:37;5.63;;;1.50;;
23990;SDS011;12205;50.600;4.608;2022-07-09T10:51:04;4.82;;;1.40;;
23990;SDS011;12205;50.600;4.608;2022-07-09T10:53:33;3.95;;;1.33;;
23990;SDS011;12205;50.600;4.608;2022-07-09T10:56:00;10.85;;;1.85;;
23990;SDS011;12205;50.600;4.608;2022-07-09T10:58:28;8.10;;;1.80;;
23990;SDS011;12205;50.600;4.608;2022-07-09T11:00:56;6.03;;;1.40;;
23990;SDS011;12205;50.600;4.608;2022-07-09T11:03:25;6.95;;;1.70;;
23990;SDS011;12205;50.600;4.608;2022-07-09T11:05:53;6.85;;;1.30;;
23990;SDS011;12205;50.600;4.608;2022-07-09T11:08:21;4.72;;;1.23;;
23990;SDS011;12205;50.600;4.608;2022-07-09T11:11:22;6.00;;;1.45;;
23990;SDS011;12205;50.600;4.608;2022-07-09T11:13:50;6.28;;;1.73;;
23990;SDS011;12205;50.600;4.608;2022-07-09T11:16:36;4.80;;;1.42;;
23990;SDS011;12205;50.600;4.608;2022-07-09T11:19:11;9.00;;;2.17;;
23990;SDS011;12205;50.600;4.608;2022-07-09T11:21:41;9.18;;;2.17;;
23990;SDS011;12205;50.600;4.608;2022-07-09T11:24:12;6.20;;;1.80;;
23990;SDS011;12205;50.600;4.608;2022-07-09T11:26:42;7.63;;;1.77;;
23990;SDS011;12205;50.600;4.608;2022-07-09T11:29:09;7.15;;;2.10;;
23990;SDS011;12205;50.600;4.608;2022-07-09T11:31:37;8.15;;;3.25;;
23990;SDS011;12205;50.600;4.608;2022-07-09T11:34:14;13.45;;;2.92;;
23990;SDS011;12205;50.600;4.608;2022-07-09T11:36:42;9.23;;;2.85;;
23990;SDS011;12205;50.600;4.608;2022-07-09T11:39:23;8.25;;;3.13;;
23990;SDS011;12205;50.600;4.608;2022-07-09T11:41:54;7.97;;;3.40;;
23990;SDS011;12205;50.600;4.608;2022-07-09T11:44:24;12.18;;;4.00;;
23990;SDS011;12205;50.600;4.608;2022-07-09T11:47:05;7.28;;;3.30;;
23990;SDS011;12205;50.600;4.608;2022-07-09T11:49:35;7.93;;;3.42;;
23990;SDS011;12205;50.600;4.608;2022-07-09T11:52:04;11.30;;;4.18;;
23990;SDS011;12205;50.600;4.608;2022-07-09T11:54:53;9.27;;;3.47;;
23990;SDS011;12205;50.600;4.608;2022-07-09T11:57:25;9.37;;;3.33;;
23990;SDS011;12205;50.600;4.608;2022-07-09T11:59:54;9.83;;;3.00;;
23990;SDS011;12205;50.600;4.608;2022-07-09T12:02:22;13.52;;;3.40;;
23990;SDS011;12205;50.600;4.608;2022-07-09T12:04:55;18.75;;;5.53;;
23990;SDS011;12205;50.600;4.608;2022-07-09T12:07:22;10.18;;;2.97;;
23990;SDS011;12205;50.600;4.608;2022-07-09T12:09:59;13.98;;;3.15;;
23990;SDS011;12205;50.600;4.608;2022-07-09T12:12:32;12.52;;;2.80;;
23990;SDS011;12205;50.600;4.608;2022-07-09T12:15:02;9.80;;;1.97;;
23990;SDS011;12205;50.600;4.608;2022-07-09T12:17:31;5.70;;;1.90;;
23990;SDS011;12205;50.600;4.608;2022-07-09T12:19:58;17.90;;;3.22;;
23990;SDS011;12205;50.600;4.608;2022-07-09T12:22:31;10.10;;;2.42;;
23990;SDS011;12205;50.600;4.608;2022-07-09T12:24:58;8.13;;;2.63;;
23990;SDS011;12205;50.600;4.608;2022-07-09T12:27:26;7.85;;;2.50;;
23990;SDS011;12205;50.600;4.608;2022-07-09T12:29:54;7.90;;;2.70;;
23990;SDS011;12205;50.600;4.608;2022-07-09T12:32:23;7.53;;;2.03;;
23990;SDS011;12205;50.600;4.608;2022-07-09T12:34:50;11.88;;;1.80;;
23990;SDS011;12205;50.600;4.608;2022-07-09T12:37:17;7.75;;;1.80;;
23990;SDS011;12205;50.600;4.608;2022-07-09T12:39:44;4.53;;;1.50;;
23990;SDS011;12205;50.600;4.608;2022-07-09T12:42:12;3.88;;;1.20;;
23990;SDS011;12205;50.600;4.608;2022-07-09T12:44:39;2.90;;;1.08;;
23990;SDS011;12205;50.600;4.608;2022-07-09T12:47:07;5.95;;;1.00;;
23990;SDS011;12205;50.600;4.608;2022-07-09T12:49:36;2.22;;;0.60;;
23990;SDS011;12205;50.600;4.608;2022-07-09T12:52:03;3.55;;;0.63;;
23990;SDS011;12205;50.600;4.608;2022-07-09T12:54:31;4.90;;;0.93;;
23990;SDS011;12205;50.600;4.608;2022-07-09T12:56:58;2.05;;;0.70;;
23990;SDS011;12205;50.600;4.608;2022-07-09T12:59:26;3.55;;;0.73;;
23990;SDS011;12205;50.600;4.608;2022-07-09T13:01:53;2.13;;;0.82;;
23990;SDS011;12205;50.600;4.608;2022-07-09T13:04:22;4.13;;;1.25;;
23990;SDS011;12205;50.600;4.608;2022-07-09T13:06:49;4.97;;;0.70;;
23990;SDS011;12205;50.600;4.608;2022-07-09T13:09:16;4.32;;;0.75;;
23990;SDS011;12205;50.600;4.608;2022-07-09T13:11:44;2.72;;;0.50;;
23990;SDS011;12205;50.600;4.608;2022-07-09T13:14:11;2.85;;;0.50;;
23990;SDS011;12205;50.600;4.608;2022-07-09T13:16:38;1.23;;;0.40;;
23990;SDS011;12205;50.600;4.608;2022-07-09T13:19:06;1.38;;;0.40;;
23990;SDS011;12205;50.600;4.608;2022-07-09T13:21:35;2.30;;;0.60;;
23990;SDS011;12205;50.600;4.608;2022-07-09T13:24:18;3.20;;;0.63;;
23990;SDS011;12205;50.600;4.608;2022-07-09T13:27:12;14.65;;;1.83;;
23990;SDS011;12205;50.600;4.608;2022-07-09T13:29:51;1.63;;;0.50;;
23990;SDS011;12205;50.600;4.608;2022-07-09T13:37:57;1.38;;;0.40;;
23990;SDS011;12205;50.600;4.608;2022-07-09T13:40:24;2.17;;;0.65;;
23990;SDS011;12205;50.600;4.608;2022-07-09T13:42:51;2.88;;;0.57;;
23990;SDS011;12205;50.600;4.608;2022-07-09T13:45:18;3.75;;;0.70;;
23990;SDS011;12205;50.600;4.608;2022-07-09T13:47:46;5.32;;;0.90;;
23990;SDS011;12205;50.600;4.608;2022-07-09T13:50:13;2.95;;;0.50;;
23990;SDS011;12205;50.600;4.608;2022-07-09T13:52:43;3.37;;;0.40;;
23990;SDS011;12205;50.600;4.608;2022-07-09T13:55:12;0.82;;;0.50;;
23990;SDS011;12205;50.600;4.608;2022-07-09T13:57:40;2.03;;;0.65;;
23990;SDS011;12205;50.600;4.608;2022-07-09T14:00:11;3.90;;;0.70;;
23990;SDS011;12205;50.600;4.608;2022-07-09T14:02:39;2.08;;;0.57;;
23990;SDS011;12205;50.600;4.608;2022-07-09T14:05:07;2.13;;;0.40;;
23990;SDS011;12205;50.600;4.608;2022-07-09T14:07:34;2.10;;;0.50;;
23990;SDS011;12205;50.600;4.608;2022-07-09T14:10:02;3.70;;;0.40;;
23990;SDS011;12205;50.600;4.608;2022-07-09T14:12:31;1.90;;;0.32;;
23990;SDS011;12205;50.600;4.608;2022-07-09T14:14:58;1.40;;;0.40;;
23990;SDS011;12205;50.600;4.608;2022-07-09T14:17:27;1.42;;;0.32;;
23990;SDS011;12205;50.600;4.608;2022-07-09T14:20:03;1.58;;;0.30;;
23990;SDS011;12205;50.600;4.608;2022-07-09T14:22:46;3.05;;;0.55;;
23990;SDS011;12205;50.600;4.608;2022-07-09T14:25:14;3.65;;;0.43;;
23990;SDS011;12205;50.600;4.608;2022-07-09T14:27:43;5.38;;;0.80;;
23990;SDS011;12205;50.600;4.608;2022-07-09T14:30:14;0.85;;;0.35;;
23990;SDS011;12205;50.600;4.608;2022-07-09T14:32:42;2.17;;;0.50;;
23990;SDS011;12205;50.600;4.608;2022-07-09T14:35:10;2.75;;;0.38;;
23990;SDS011;12205;50.600;4.608;2022-07-09T14:37:37;1.05;;;0.40;;
23990;SDS011;12205;50.600;4.608;2022-07-09T14:40:05;3.28;;;0.50;;
23990;SDS011;12205;50.600;4.608;2022-07-09T14:42:34;3.22;;;0.40;;
23990;SDS011;12205;50.600;4.608;2022-07-09T14:45:03;6.07;;;0.35;;
23990;SDS011;12205;50.600;4.608;2022-07-09T14:47:32;1.65;;;0.40;;
23990;SDS011;12205;50.600;4.608;2022-07-09T14:49:59;2.47;;;0.40;;
23990;SDS011;12205;50.600;4.608;2022-07-09T14:52:26;0.65;;;0.20;;
23990;SDS011;12205;50.600;4.608;2022-07-09T14:54:54;2.92;;;0.20;;
23990;SDS011;12205;50.600;4.608;2022-07-09T14:57:21;1.65;;;0.40;;
23990;SDS011;12205;50.600;4.608;2022-07-09T14:59:49;3.40;;;0.40;;
23990;SDS011;12205;50.600;4.608;2022-07-09T15:02:18;1.90;;;0.30;;
23990;SDS011;12205;50.600;4.608;2022-07-09T15:04:45;4.03;;;0.50;;
23990;SDS011;12205;50.600;4.608;2022-07-09T15:07:12;4.15;;;0.65;;
23990;SDS011;12205;50.600;4.608;2022-07-09T15:09:47;1.65;;;0.40;;